OIHH  Hamadan  Airport

Hamadan, Iran

Add Bookmark
ICAO OIHH
IATA HDM
Type Airport
Status Operational
Latitude
34° 52' 9" N
34.869202
Longitude
48° 33' 9" E
48.552502
Local (DST + 5) UTC (GMT + 4)
Sep 4, 2015 02:53 Sep 4, 2015 10:23
Sunrise-Sunset Local UTC
Begin Civil Twilight 06:23 01:53
Sunrise 06:49 02:19
Sunset 07:40 15:10
End Civil Twilight 08:05 15:35
VFR
VFR
MVFR
MVFR
IFR
IFR
LIFR
LIFR
Unknown
Unavailable

Current Weather

METAR Observed
OIHH 032250Z AUTO 11004KT //// // ////// 16/03 Q1021 Thu, Sep 3, 2015 @ 22:50 UTC
(11 Hours, 33 Minutes ago)
Wind Conditions
110° at 4 knots (7 kph)
  • No significant weather
Temperatures Readings Precipitation
Current Temp
16°C
61°F
Dewpoint
3°C
37°F
Humidity 42%
Altimeter 30.15" Hg
Sea Level Pressure 1,021 mb
Field Elevation
1,757 m
5,764 ft
None Recorded

Additional weather within a 92.6km radius of OIHH

Map ICAO Location
OIHM 69.5km S/SE (160°)
VFR
VFR
MVFR
MVFR
IFR
IFR
LIFR
LIFR
Unknown
Unavailable
-
-

CheckWX.com is intended as a tool to help pilots better visualize weather data. It is not intended as a substitute for an official weather briefing obtained from a Flight Service Station. CheckWX.com does not meet the FAA requirements for an official pre-flight weather briefing. Therefore, it's important that pilots still call and obtain an official FSS pre-flight weather briefing.

© 2007-2015 CheckWX.com
10:23:01 UTC